sensor_id;sensor_type;location;lat;lon;timestamp;pressure;altitude;pressure_sealevel;temperature;humidity
75418;BME280;63997;52.112;5.420;2023-03-01T00:00:00;103393.91;;;-1.77;77.40
75418;BME280;63997;52.112;5.420;2023-03-01T00:02:26;103393.91;;;-1.77;77.39
75418;BME280;63997;52.112;5.420;2023-03-01T00:04:52;103397.81;;;-1.81;77.35
75418;BME280;63997;52.112;5.420;2023-03-01T00:07:19;103396.53;;;-1.86;77.21
75418;BME280;63997;52.112;5.420;2023-03-01T00:09:45;103392.00;;;-1.92;77.17
75418;BME280;63997;52.112;5.420;2023-03-01T00:12:12;103397.09;;;-1.98;77.02
75418;BME280;63997;52.112;5.420;2023-03-01T00:14:38;103397.63;;;-2.03;77.32
75418;BME280;63997;52.112;5.420;2023-03-01T00:17:05;103404.31;;;-2.00;77.74
75418;BME280;63997;52.112;5.420;2023-03-01T00:19:31;103398.59;;;-2.04;77.98
75418;BME280;63997;52.112;5.420;2023-03-01T00:21:58;103393.38;;;-2.04;78.25
75418;BME280;63997;52.112;5.420;2023-03-01T00:24:25;103394.19;;;-2.03;78.34
75418;BME280;63997;52.112;5.420;2023-03-01T00:26:54;103398.97;;;-2.07;78.26
75418;BME280;63997;52.112;5.420;2023-03-01T00:29:24;103390.47;;;-2.09;78.39
75418;BME280;63997;52.112;5.420;2023-03-01T00:31:50;103384.00;;;-2.13;78.22
75418;BME280;63997;52.112;5.420;2023-03-01T00:34:17;103382.53;;;-2.16;78.31
75418;BME280;63997;52.112;5.420;2023-03-01T00:36:44;103382.91;;;-2.19;78.37
75418;BME280;63997;52.112;5.420;2023-03-01T00:39:13;103384.72;;;-2.27;78.27
75418;BME280;63997;52.112;5.420;2023-03-01T00:41:40;103382.28;;;-2.29;78.79
75418;BME280;63997;52.112;5.420;2023-03-01T00:44:07;103385.69;;;-2.28;78.77
75418;BME280;63997;52.112;5.420;2023-03-01T00:46:34;103383.59;;;-2.33;78.54
75418;BME280;63997;52.112;5.420;2023-03-01T00:49:01;103382.47;;;-2.38;78.96
75418;BME280;63997;52.112;5.420;2023-03-01T00:51:29;103376.28;;;-2.37;79.06
75418;BME280;63997;52.112;5.420;2023-03-01T00:53:57;103378.56;;;-2.34;79.12
75418;BME280;63997;52.112;5.420;2023-03-01T00:56:24;103384.75;;;-2.35;79.22
75418;BME280;63997;52.112;5.420;2023-03-01T00:58:51;103380.00;;;-2.32;79.21
75418;BME280;63997;52.112;5.420;2023-03-01T01:01:22;103370.41;;;-2.31;79.37
75418;BME280;63997;52.112;5.420;2023-03-01T01:03:55;103363.25;;;-2.29;79.41
75418;BME280;63997;52.112;5.420;2023-03-01T01:06:32;103369.88;;;-2.27;79.71
75418;BME280;63997;52.112;5.420;2023-03-01T01:08:59;103361.88;;;-2.25;79.73
75418;BME280;63997;52.112;5.420;2023-03-01T01:11:27;103363.53;;;-2.24;79.96
75418;BME280;63997;52.112;5.420;2023-03-01T01:13:55;103352.44;;;-2.26;79.94
75418;BME280;63997;52.112;5.420;2023-03-01T01:16:23;103354.06;;;-2.25;79.83
75418;BME280;63997;52.112;5.420;2023-03-01T01:18:50;103358.03;;;-2.29;79.92
75418;BME280;63997;52.112;5.420;2023-03-01T01:21:19;103353.50;;;-2.35;79.61
75418;BME280;63997;52.112;5.420;2023-03-01T01:23:46;103345.38;;;-2.41;79.78
75418;BME280;63997;52.112;5.420;2023-03-01T01:26:25;103342.09;;;-2.43;79.70
75418;BME280;63997;52.112;5.420;2023-03-01T01:28:52;103345.06;;;-2.46;79.43
75418;BME280;63997;52.112;5.420;2023-03-01T01:31:20;103342.78;;;-2.49;79.30
75418;BME280;63997;52.112;5.420;2023-03-01T01:33:50;103334.03;;;-2.56;79.40
75418;BME280;63997;52.112;5.420;2023-03-01T01:36:17;103329.00;;;-2.57;79.95
75418;BME280;63997;52.112;5.420;2023-03-01T01:38:43;103332.72;;;-2.52;80.10
75418;BME280;63997;52.112;5.420;2023-03-01T01:41:11;103333.84;;;-2.46;80.13
75418;BME280;63997;52.112;5.420;2023-03-01T01:43:43;103342.47;;;-2.46;80.07
75418;BME280;63997;52.112;5.420;2023-03-01T01:46:31;103343.97;;;-2.51;79.91
75418;BME280;63997;52.112;5.420;2023-03-01T01:49:02;103339.56;;;-2.51;80.02
75418;BME280;63997;52.112;5.420;2023-03-01T01:51:37;103325.88;;;-2.53;80.07
75418;BME280;63997;52.112;5.420;2023-03-01T01:54:19;103335.47;;;-2.53;80.22
75418;BME280;63997;52.112;5.420;2023-03-01T01:56:52;103326.41;;;-2.57;80.24
75418;BME280;63997;52.112;5.420;2023-03-01T01:59:21;103327.84;;;-2.55;80.27
75418;BME280;63997;52.112;5.420;2023-03-01T02:01:52;103328.81;;;-2.56;80.30
75418;BME280;63997;52.112;5.420;2023-03-01T02:04:19;103321.19;;;-2.57;79.97
75418;BME280;63997;52.112;5.420;2023-03-01T02:06:53;103319.25;;;-2.63;79.82
75418;BME280;63997;52.112;5.420;2023-03-01T02:09:23;103316.00;;;-2.66;80.11
75418;BME280;63997;52.112;5.420;2023-03-01T02:11:50;103317.63;;;-2.64;80.47
75418;BME280;63997;52.112;5.420;2023-03-01T02:14:17;103323.63;;;-2.64;80.30
75418;BME280;63997;52.112;5.420;2023-03-01T02:16:43;103322.19;;;-2.67;80.33
75418;BME280;63997;52.112;5.420;2023-03-01T02:19:22;103315.53;;;-2.69;80.42
75418;BME280;63997;52.112;5.420;2023-03-01T02:22:05;103316.38;;;-2.77;80.69
75418;BME280;63997;52.112;5.420;2023-03-01T02:24:45;103313.59;;;-2.75;80.58
75418;BME280;63997;52.112;5.420;2023-03-01T02:27:15;103316.38;;;-2.77;80.66
75418;BME280;63997;52.112;5.420;2023-03-01T02:29:43;103313.59;;;-2.75;81.05
75418;BME280;63997;52.112;5.420;2023-03-01T02:32:11;103319.78;;;-2.76;81.03
75418;BME280;63997;52.112;5.420;2023-03-01T02:34:38;103307.75;;;-2.77;80.84
75418;BME280;63997;52.112;5.420;2023-03-01T02:37:10;103303.22;;;-2.83;80.72
75418;BME280;63997;52.112;5.420;2023-03-01T02:39:44;103293.13;;;-2.86;80.58
75418;BME280;63997;52.112;5.420;2023-03-01T02:42:16;103293.81;;;-2.93;80.56
75418;BME280;63997;52.112;5.420;2023-03-01T02:44:46;103288.94;;;-2.96;80.58
75418;BME280;63997;52.112;5.420;2023-03-01T02:47:12;103292.53;;;-2.97;80.60
75418;BME280;63997;52.112;5.420;2023-03-01T02:49:39;103298.88;;;-2.99;80.84
75418;BME280;63997;52.112;5.420;2023-03-01T02:54:39;103288.00;;;-3.03;81.15
75418;BME280;63997;52.112;5.420;2023-03-01T02:57:06;103291.09;;;-3.07;81.13
75418;BME280;63997;52.112;5.420;2023-03-01T02:59:35;103286.69;;;-3.07;81.32
75418;BME280;63997;52.112;5.420;2023-03-01T03:02:07;103289.94;;;-3.05;81.50
75418;BME280;63997;52.112;5.420;2023-03-01T03:04:33;103285.53;;;-3.04;81.58
75418;BME280;63997;52.112;5.420;2023-03-01T03:07:00;103289.94;;;-3.05;81.61
75418;BME280;63997;52.112;5.420;2023-03-01T03:09:26;103279.88;;;-3.08;81.51
75418;BME280;63997;52.112;5.420;2023-03-01T03:11:52;103278.75;;;-3.13;81.60
75418;BME280;63997;52.112;5.420;2023-03-01T03:14:19;103287.25;;;-3.20;81.73
75418;BME280;63997;52.112;5.420;2023-03-01T03:16:49;103295.38;;;-3.31;81.50
75418;BME280;63997;52.112;5.420;2023-03-01T03:19:17;103285.63;;;-3.37;81.51
75418;BME280;63997;52.112;5.420;2023-03-01T03:21:44;103276.19;;;-3.38;81.78
75418;BME280;63997;52.112;5.420;2023-03-01T03:24:11;103275.53;;;-3.32;82.31
75418;BME280;63997;52.112;5.420;2023-03-01T03:26:37;103274.56;;;-3.31;82.58
75418;BME280;63997;52.112;5.420;2023-03-01T03:29:04;103265.78;;;-3.30;82.18
75418;BME280;63997;52.112;5.420;2023-03-01T03:31:30;103270.19;;;-3.38;81.85
75418;BME280;63997;52.112;5.420;2023-03-01T03:33:57;103273.94;;;-3.41;81.71
75418;BME280;63997;52.112;5.420;2023-03-01T03:36:25;103277.84;;;-3.45;81.40
75418;BME280;63997;52.112;5.420;2023-03-01T03:38:51;103274.91;;;-3.50;81.27
75418;BME280;63997;52.112;5.420;2023-03-01T03:41:18;103277.34;;;-3.49;81.50
75418;BME280;63997;52.112;5.420;2023-03-01T03:43:45;103280.44;;;-3.45;81.64
75418;BME280;63997;52.112;5.420;2023-03-01T03:46:12;103281.41;;;-3.46;81.39
75418;BME280;63997;52.112;5.420;2023-03-01T03:48:41;103271.19;;;-3.48;81.25
75418;BME280;63997;52.112;5.420;2023-03-01T03:51:11;103261.75;;;-3.49;81.34
75418;BME280;63997;52.112;5.420;2023-03-01T03:53:37;103264.03;;;-3.54;81.26
75418;BME280;63997;52.112;5.420;2023-03-01T03:56:04;103266.00;;;-3.56;81.28
75418;BME280;63997;52.112;5.420;2023-03-01T03:58:32;103259.16;;;-3.57;81.47
75418;BME280;63997;52.112;5.420;2023-03-01T04:00:58;103256.22;;;-3.54;81.83
75418;BME280;63997;52.112;5.420;2023-03-01T04:03:28;103264.69;;;-3.60;81.30
75418;BME280;63997;52.112;5.420;2023-03-01T04:05:57;103269.25;;;-3.70;81.13
75418;BME280;63997;52.112;5.420;2023-03-01T04:08:23;103266.34;;;-3.75;81.22
75418;BME280;63997;52.112;5.420;2023-03-01T04:10:52;103266.66;;;-3.78;81.45
75418;BME280;63997;52.112;5.420;2023-03-01T04:13:20;103271.69;;;-3.77;81.43
75418;BME280;63997;52.112;5.420;2023-03-01T04:15:54;103270.38;;;-3.73;81.70
75418;BME280;63997;52.112;5.420;2023-03-01T04:18:22;103274.47;;;-3.70;81.87
75418;BME280;63997;52.112;5.420;2023-03-01T04:20:50;103263.09;;;-3.69;81.79
75418;BME280;63997;52.112;5.420;2023-03-01T04:23:19;103265.00;;;-3.71;81.52
75418;BME280;63997;52.112;5.420;2023-03-01T04:25:51;103270.22;;;-3.71;81.72
75418;BME280;63997;52.112;5.420;2023-03-01T04:28:26;103269.56;;;-3.73;81.78
75418;BME280;63997;52.112;5.420;2023-03-01T04:30:54;103274.59;;;-3.72;81.68
75418;BME280;63997;52.112;5.420;2023-03-01T04:33:21;103274.78;;;-3.73;81.83
75418;BME280;63997;52.112;5.420;2023-03-01T04:35:48;103276.41;;;-3.72;82.11
75418;BME280;63997;52.112;5.420;2023-03-01T04:38:19;103268.28;;;-3.69;82.34
75418;BME280;63997;52.112;5.420;2023-03-01T04:40:45;103264.06;;;-3.70;82.24
75418;BME280;63997;52.112;5.420;2023-03-01T04:43:12;103270.22;;;-3.71;82.29
75418;BME280;63997;52.112;5.420;2023-03-01T04:45:42;103258.38;;;-3.74;82.38
75418;BME280;63997;52.112;5.420;2023-03-01T04:48:09;103262.75;;;-3.74;82.28
75418;BME280;63997;52.112;5.420;2023-03-01T04:50:35;103257.56;;;-3.74;82.16
75418;BME280;63997;52.112;5.420;2023-03-01T04:53:02;103258.53;;;-3.75;82.01
75418;BME280;63997;52.112;5.420;2023-03-01T04:55:29;103250.75;;;-3.75;82.25
75418;BME280;63997;52.112;5.420;2023-03-01T04:57:55;103240.47;;;-3.77;82.27
75418;BME280;63997;52.112;5.420;2023-03-01T05:00:22;103245.84;;;-3.78;82.17
75418;BME280;63997;52.112;5.420;2023-03-01T05:03:00;103238.69;;;-3.76;82.35
75418;BME280;63997;52.112;5.420;2023-03-01T05:05:30;103237.06;;;-3.77;82.26
75418;BME280;63997;52.112;5.420;2023-03-01T05:07:59;103228.16;;;-3.83;82.32
75418;BME280;63997;52.112;5.420;2023-03-01T05:10:27;103226.53;;;-3.84;82.37
75418;BME280;63997;52.112;5.420;2023-03-01T05:12:56;103227.69;;;-3.86;82.34
75418;BME280;63997;52.112;5.420;2023-03-01T05:15:24;103225.22;;;-3.88;82.47
75418;BME280;63997;52.112;5.420;2023-03-01T05:17:53;103223.44;;;-3.87;82.28
75418;BME280;63997;52.112;5.420;2023-03-01T05:20:20;103223.59;;;-3.89;82.36
75418;BME280;63997;52.112;5.420;2023-03-01T05:22:51;103215.00;;;-3.89;82.35
75418;BME280;63997;52.112;5.420;2023-03-01T05:25:18;103213.06;;;-3.95;82.50
75418;BME280;63997;52.112;5.420;2023-03-01T05:27:44;103212.88;;;-3.94;82.58
75418;BME280;63997;52.112;5.420;2023-03-01T05:30:11;103204.94;;;-3.92;82.71
75418;BME280;63997;52.112;5.420;2023-03-01T05:32:50;103200.69;;;-3.93;82.42
75418;BME280;63997;52.112;5.420;2023-03-01T05:35:21;103201.69;;;-3.94;82.33
75418;BME280;63997;52.112;5.420;2023-03-01T05:37:49;103201.03;;;-3.96;82.33
75418;BME280;63997;52.112;5.420;2023-03-01T05:40:21;103193.25;;;-3.96;82.55
75418;BME280;63997;52.112;5.420;2023-03-01T05:42:53;103181.06;;;-3.96;82.56
75418;BME280;63997;52.112;5.420;2023-03-01T05:45:21;103180.06;;;-3.95;82.77
75418;BME280;63997;52.112;5.420;2023-03-01T05:47:49;103192.75;;;-4.00;82.52
75418;BME280;63997;52.112;5.420;2023-03-01T05:50:18;103185.94;;;-4.01;82.52
75418;BME280;63997;52.112;5.420;2023-03-01T05:52:52;103185.28;;;-4.03;82.81
75418;BME280;63997;52.112;5.420;2023-03-01T05:55:22;103187.72;;;-4.02;82.41
75418;BME280;63997;52.112;5.420;2023-03-01T05:57:49;103179.28;;;-4.04;82.27
75418;BME280;63997;52.112;5.420;2023-03-01T06:00:18;103169.22;;;-4.07;82.28
75418;BME280;63997;52.112;5.420;2023-03-01T06:02:45;103186.41;;;-4.06;82.36
75418;BME280;63997;52.112;5.420;2023-03-01T06:05:12;103185.13;;;-4.10;82.39
75418;BME280;63997;52.112;5.420;2023-03-01T06:07:40;103186.44;;;-4.14;82.06
75418;BME280;63997;52.112;5.420;2023-03-01T06:10:08;103176.19;;;-4.23;81.96
75418;BME280;63997;52.112;5.420;2023-03-01T06:12:36;103176.03;;;-4.30;81.83
75418;BME280;63997;52.112;5.420;2023-03-01T06:15:03;103176.69;;;-4.36;81.97
75418;BME280;63997;52.112;5.420;2023-03-01T06:17:32;103183.50;;;-4.35;82.34
75418;BME280;63997;52.112;5.420;2023-03-01T06:19:58;103183.34;;;-4.34;82.31
75418;BME280;63997;52.112;5.420;2023-03-01T06:22:25;103186.44;;;-4.30;82.42
75418;BME280;63997;52.112;5.420;2023-03-01T06:24:51;103186.25;;;-4.29;82.32
75418;BME280;63997;52.112;5.420;2023-03-01T06:27:17;103185.75;;;-4.32;82.16
75418;BME280;63997;52.112;5.420;2023-03-01T06:29:44;103185.75;;;-4.32;82.36
75418;BME280;63997;52.112;5.420;2023-03-01T06:32:10;103183.50;;;-4.27;82.52
75418;BME280;63997;52.112;5.420;2023-03-01T06:34:37;103185.59;;;-4.22;82.46
75418;BME280;63997;52.112;5.420;2023-03-01T06:37:03;103182.84;;;-4.21;82.63
75418;BME280;63997;52.112;5.420;2023-03-01T06:39:32;103191.47;;;-4.20;82.61
75418;BME280;63997;52.112;5.420;2023-03-01T06:41:59;103190.97;;;-4.16;82.45
75418;BME280;63997;52.112;5.420;2023-03-01T06:44:25;103188.50;;;-3.93;83.23
75418;BME280;63997;52.112;5.420;2023-03-01T06:46:52;103181.56;;;-2.67;83.73
75418;BME280;63997;52.112;5.420;2023-03-01T06:49:18;103187.81;;;-2.07;81.35
75418;BME280;63997;52.112;5.420;2023-03-01T06:51:46;103185.97;;;-1.54;81.01
75418;BME280;63997;52.112;5.420;2023-03-01T06:54:12;103176.31;;;-1.09;78.75
75418;BME280;63997;52.112;5.420;2023-03-01T06:56:39;103181.56;;;-1.68;77.17
75418;BME280;63997;52.112;5.420;2023-03-01T06:59:05;103186.63;;;-2.04;77.14
75418;BME280;63997;52.112;5.420;2023-03-01T07:01:32;103180.94;;;-2.08;77.56
75418;BME280;63997;52.112;5.420;2023-03-01T07:03:58;103178.16;;;-1.54;77.96
75418;BME280;63997;52.112;5.420;2023-03-01T07:06:24;103180.22;;;-1.35;76.49
75418;BME280;63997;52.112;5.420;2023-03-01T07:08:51;103174.47;;;-1.45;75.78
75418;BME280;63997;52.112;5.420;2023-03-01T07:11:17;103169.97;;;-1.66;75.52
75418;BME280;63997;52.112;5.420;2023-03-01T07:13:43;103183.81;;;-1.65;75.92
75418;BME280;63997;52.112;5.420;2023-03-01T07:16:10;103178.50;;;-1.42;76.47
75418;BME280;63997;52.112;5.420;2023-03-01T07:18:36;103175.22;;;-1.15;76.63
75418;BME280;63997;52.112;5.420;2023-03-01T07:21:07;103181.72;;;-0.74;76.62
75418;BME280;63997;52.112;5.420;2023-03-01T07:23:34;103181.13;;;-0.55;75.75
75418;BME280;63997;52.112;5.420;2023-03-01T07:26:01;103182.50;;;-0.74;75.54
75418;BME280;63997;52.112;5.420;2023-03-01T07:28:27;103185.34;;;-0.54;75.70
75418;BME280;63997;52.112;5.420;2023-03-01T07:30:54;103180.53;;;-0.29;75.03
75418;BME280;63997;52.112;5.420;2023-03-01T07:33:21;103193.16;;;-0.11;75.19
75418;BME280;63997;52.112;5.420;2023-03-01T07:35:47;103182.50;;;1.01;75.22
75418;BME280;63997;52.112;5.420;2023-03-01T07:38:14;103175.50;;;2.41;71.68
75418;BME280;63997;52.112;5.420;2023-03-01T07:40:40;103179.31;;;2.51;69.53
75418;BME280;63997;52.112;5.420;2023-03-01T07:43:07;103182.22;;;2.10;68.16
75418;BME280;63997;52.112;5.420;2023-03-01T07:45:33;103191.94;;;1.76;68.41
75418;BME280;63997;52.112;5.420;2023-03-01T07:47:59;103188.47;;;1.43;68.79
75418;BME280;63997;52.112;5.420;2023-03-01T07:50:26;103188.19;;;1.18;69.37
75418;BME280;63997;52.112;5.420;2023-03-01T07:52:52;103190.31;;;1.69;68.95
75418;BME280;63997;52.112;5.420;2023-03-01T07:55:19;103192.69;;;1.30;69.01
75418;BME280;63997;52.112;5.420;2023-03-01T07:57:46;103186.41;;;1.25;69.90
75418;BME280;63997;52.112;5.420;2023-03-01T08:00:12;103185.59;;;2.44;70.66
75418;BME280;63997;52.112;5.420;2023-03-01T08:02:39;103181.47;;;3.12;67.47
75418;BME280;63997;52.112;5.420;2023-03-01T08:05:09;103190.81;;;3.02;67.19
75418;BME280;63997;52.112;5.420;2023-03-01T08:07:36;103191.81;;;4.39;66.38
75418;BME280;63997;52.112;5.420;2023-03-01T08:10:03;103179.78;;;4.24;63.52
75418;BME280;63997;52.112;5.420;2023-03-01T08:12:29;103179.78;;;3.25;64.52
75418;BME280;63997;52.112;5.420;2023-03-01T08:14:56;103187.91;;;2.78;65.60
75418;BME280;63997;52.112;5.420;2023-03-01T08:17:23;103185.06;;;3.18;66.23
75418;BME280;63997;52.112;5.420;2023-03-01T08:19:49;103182.66;;;3.16;65.25
75418;BME280;63997;52.112;5.420;2023-03-01T08:22:15;103181.09;;;2.64;66.04
75418;BME280;63997;52.112;5.420;2023-03-01T08:24:42;103180.28;;;2.70;67.16
75418;BME280;63997;52.112;5.420;2023-03-01T08:27:09;103179.16;;;3.61;66.97
75418;BME280;63997;52.112;5.420;2023-03-01T08:29:36;103177.50;;;4.83;64.20
75418;BME280;63997;52.112;5.420;2023-03-01T08:32:02;103168.06;;;5.47;62.26
75418;BME280;63997;52.112;5.420;2023-03-01T08:34:29;103164.50;;;5.30;61.17
75418;BME280;63997;52.112;5.420;2023-03-01T08:36:57;103156.19;;;5.80;59.88
75418;BME280;63997;52.112;5.420;2023-03-01T08:39:23;103167.00;;;6.66;58.64
75418;BME280;63997;52.112;5.420;2023-03-01T08:41:50;103162.47;;;7.06;56.45
75418;BME280;63997;52.112;5.420;2023-03-01T08:44:16;103158.63;;;6.97;56.07
75418;BME280;63997;52.112;5.420;2023-03-01T08:46:43;103150.56;;;7.54;55.21
75418;BME280;63997;52.112;5.420;2023-03-01T08:49:12;103153.88;;;6.71;54.61
75418;BME280;63997;52.112;5.420;2023-03-01T08:51:40;103157.31;;;5.61;56.73
75418;BME280;63997;52.112;5.420;2023-03-01T08:54:10;103151.38;;;5.12;58.45
75418;BME280;63997;52.112;5.420;2023-03-01T08:56:38;103147.25;;;4.86;59.23
75418;BME280;63997;52.112;5.420;2023-03-01T08:59:04;103143.66;;;5.10;59.94
75418;BME280;63997;52.112;5.420;2023-03-01T09:01:31;103141.31;;;5.44;59.35
75418;BME280;63997;52.112;5.420;2023-03-01T09:03:57;103141.66;;;5.36;59.24
75418;BME280;63997;52.112;5.420;2023-03-01T09:06:24;103148.16;;;5.21;60.30
75418;BME280;63997;52.112;5.420;2023-03-01T09:08:50;103133.72;;;6.53;59.15
75418;BME280;63997;52.112;5.420;2023-03-01T09:11:19;103114.94;;;9.20;54.50
75418;BME280;63997;52.112;5.420;2023-03-01T09:13:47;103110.03;;;8.80;51.39
75418;BME280;63997;52.112;5.420;2023-03-01T09:16:15;103120.03;;;7.85;53.38
75418;BME280;63997;52.112;5.420;2023-03-01T09:18:43;103117.81;;;9.19;52.25
75418;BME280;63997;52.112;5.420;2023-03-01T09:21:14;103111.38;;;10.47;48.42
75418;BME280;63997;52.112;5.420;2023-03-01T09:23:43;103107.00;;;10.20;47.00
75418;BME280;63997;52.112;5.420;2023-03-01T09:26:12;103103.03;;;8.69;49.15
75418;BME280;63997;52.112;5.420;2023-03-01T09:28:39;103102.16;;;8.36;50.08
75418;BME280;63997;52.112;5.420;2023-03-01T09:31:07;103089.78;;;9.75;48.60
75418;BME280;63997;52.112;5.420;2023-03-01T09:33:34;103087.00;;;11.06;45.71
75418;BME280;63997;52.112;5.420;2023-03-01T09:36:06;103081.13;;;11.19;44.43
75418;BME280;63997;52.112;5.420;2023-03-01T09:38:33;103074.72;;;11.25;42.72
75418;BME280;63997;52.112;5.420;2023-03-01T09:41:00;103079.75;;;10.55;43.53
75418;BME280;63997;52.112;5.420;2023-03-01T09:44:01;103089.31;;;9.84;45.21
75418;BME280;63997;52.112;5.420;2023-03-01T09:46:23;103093.00;;;9.77;45.04
75418;BME280;63997;52.112;5.420;2023-03-01T09:51:29;103076.56;;;9.38;44.30
75418;BME280;63997;52.112;5.420;2023-03-01T09:53:56;103083.13;;;8.66;46.20
75418;BME280;63997;52.112;5.420;2023-03-01T09:56:30;103089.00;;;8.25;46.53
75418;BME280;63997;52.112;5.420;2023-03-01T10:04:49;103093.53;;;7.47;49.47
75418;BME280;63997;52.112;5.420;2023-03-01T10:07:39;103091.84;;;7.24;49.58
75418;BME280;63997;52.112;5.420;2023-03-01T10:10:17;103087.38;;;7.07;49.93
75418;BME280;63997;52.112;5.420;2023-03-01T10:12:50;103092.66;;;7.07;50.29
75418;BME280;63997;52.112;5.420;2023-03-01T10:15:20;103091.75;;;6.85;50.29
75418;BME280;63997;52.112;5.420;2023-03-01T10:17:51;103087.06;;;6.75;50.07
75418;BME280;63997;52.112;5.420;2023-03-01T10:23:13;103094.44;;;6.90;51.63
75418;BME280;63997;52.112;5.420;2023-03-01T10:31:21;103073.28;;;6.90;51.38
75418;BME280;63997;52.112;5.420;2023-03-01T10:33:49;103076.00;;;6.78;51.06
75418;BME280;63997;52.112;5.420;2023-03-01T10:36:23;103076.91;;;6.84;50.21
75418;BME280;63997;52.112;5.420;2023-03-01T10:38:55;103067.19;;;6.73;49.63
75418;BME280;63997;52.112;5.420;2023-03-01T10:41:24;103069.03;;;6.72;49.48
75418;BME280;63997;52.112;5.420;2023-03-01T10:43:54;103068.13;;;6.67;49.64
75418;BME280;63997;52.112;5.420;2023-03-01T10:46:33;103054.69;;;6.68;49.48
75418;BME280;63997;52.112;5.420;2023-03-01T10:51:32;103043.00;;;6.81;49.49
75418;BME280;63997;52.112;5.420;2023-03-01T10:53:58;103041.34;;;6.92;49.08
75418;BME280;63997;52.112;5.420;2023-03-01T10:56:25;103045.03;;;7.07;49.37
75418;BME280;63997;52.112;5.420;2023-03-01T10:59:17;103031.84;;;7.12;48.63
75418;BME280;63997;52.112;5.420;2023-03-01T11:01:45;103027.16;;;7.14;48.56
75418;BME280;63997;52.112;5.420;2023-03-01T11:04:13;103020.66;;;7.05;47.09
75418;BME280;63997;52.112;5.420;2023-03-01T11:06:41;103021.59;;;6.99;47.00
75418;BME280;63997;52.112;5.420;2023-03-01T11:09:19;103015.06;;;7.02;46.98
75418;BME280;63997;52.112;5.420;2023-03-01T11:11:46;103021.94;;;7.20;46.76
75418;BME280;63997;52.112;5.420;2023-03-01T11:14:21;103014.78;;;7.37;47.12
75418;BME280;63997;52.112;5.420;2023-03-01T11:17:20;103011.25;;;7.31;46.00
75418;BME280;63997;52.112;5.420;2023-03-01T11:20:17;103001.91;;;7.46;46.95
75418;BME280;63997;52.112;5.420;2023-03-01T11:22:52;103004.06;;;7.49;45.64
75418;BME280;63997;52.112;5.420;2023-03-01T11:25:24;102985.91;;;7.57;46.20
75418;BME280;63997;52.112;5.420;2023-03-01T11:27:53;102989.72;;;7.66;45.22
75418;BME280;63997;52.112;5.420;2023-03-01T11:30:27;102979.28;;;7.77;45.25
75418;BME280;63997;52.112;5.420;2023-03-01T11:33:05;102986.16;;;7.78;45.02
75418;BME280;63997;52.112;5.420;2023-03-01T11:35:42;102980.59;;;7.57;44.28
75418;BME280;63997;52.112;5.420;2023-03-01T11:40:50;102986.41;;;7.98;44.50
75418;BME280;63997;52.112;5.420;2023-03-01T11:51:43;102987.22;;;7.99;44.22
75418;BME280;63997;52.112;5.420;2023-03-01T11:57:38;102969.84;;;8.13;43.81
75418;BME280;63997;52.112;5.420;2023-03-01T12:00:44;102967.63;;;8.27;43.40
75418;BME280;63997;52.112;5.420;2023-03-01T12:03:26;102964.41;;;8.25;43.13
75418;BME280;63997;52.112;5.420;2023-03-01T12:06:22;102969.22;;;8.28;43.93
75418;BME280;63997;52.112;5.420;2023-03-01T12:09:16;102968.69;;;8.26;43.52
75418;BME280;63997;52.112;5.420;2023-03-01T12:11:51;102962.13;;;8.33;42.92
75418;BME280;63997;52.112;5.420;2023-03-01T12:14:30;102968.97;;;8.29;43.82
75418;BME280;63997;52.112;5.420;2023-03-01T12:17:56;102962.72;;;8.40;43.00
75418;BME280;63997;52.112;5.420;2023-03-01T12:23:08;102967.34;;;8.50;43.33
75418;BME280;63997;52.112;5.420;2023-03-01T12:26:10;102971.63;;;8.56;43.01
75418;BME280;63997;52.112;5.420;2023-03-01T12:29:08;102964.63;;;8.45;42.71
75418;BME280;63997;52.112;5.420;2023-03-01T12:37:29;102957.94;;;8.69;43.39
75418;BME280;63997;52.112;5.420;2023-03-01T12:45:30;102936.69;;;8.64;42.16
75418;BME280;63997;52.112;5.420;2023-03-01T12:50:51;102931.88;;;8.61;42.16
75418;BME280;63997;52.112;5.420;2023-03-01T12:53:30;102927.69;;;8.65;42.50
75418;BME280;63997;52.112;5.420;2023-03-01T12:56:10;102925.25;;;8.64;41.46
75418;BME280;63997;52.112;5.420;2023-03-01T12:58:59;102914.16;;;8.67;41.50
75418;BME280;63997;52.112;5.420;2023-03-01T13:01:51;102915.19;;;8.61;41.31
75418;BME280;63997;52.112;5.420;2023-03-01T13:07:52;102904.13;;;8.74;41.07
75418;BME280;63997;52.112;5.420;2023-03-01T13:17:51;102896.91;;;8.69;41.06
75418;BME280;63997;52.112;5.420;2023-03-01T13:20:27;102896.66;;;8.66;40.49
75418;BME280;63997;52.112;5.420;2023-03-01T13:25:28;102882.44;;;8.82;41.02
75418;BME280;63997;52.112;5.420;2023-03-01T13:31:02;102868.38;;;8.82;41.32
75418;BME280;63997;52.112;5.420;2023-03-01T13:35:57;102856.91;;;8.71;41.81
75418;BME280;63997;52.112;5.420;2023-03-01T13:38:44;102852.88;;;8.68;41.90
75418;BME280;63997;52.112;5.420;2023-03-01T13:41:17;102865.91;;;8.75;41.87
75418;BME280;63997;52.112;5.420;2023-03-01T13:44:26;102846.84;;;8.78;41.28
75418;BME280;63997;52.112;5.420;2023-03-01T13:47:16;102851.84;;;8.74;41.30
75418;BME280;63997;52.112;5.420;2023-03-01T13:49:53;102856.38;;;8.74;41.95
75418;BME280;63997;52.112;5.420;2023-03-01T13:52:35;102845.53;;;8.76;41.40
75418;BME280;63997;52.112;5.420;2023-03-01T13:55:06;102840.47;;;8.79;40.56
75418;BME280;63997;52.112;5.420;2023-03-01T13:57:42;102846.88;;;8.83;41.19
75418;BME280;63997;52.112;5.420;2023-03-01T14:03:13;102832.81;;;8.83;40.39
75418;BME280;63997;52.112;5.420;2023-03-01T14:05:41;102816.34;;;8.76;40.27
75418;BME280;63997;52.112;5.420;2023-03-01T14:08:20;102814.50;;;8.81;40.72
75418;BME280;63997;52.112;5.420;2023-03-01T14:11:20;102816.94;;;8.93;41.00
75418;BME280;63997;52.112;5.420;2023-03-01T14:17:04;102816.94;;;8.93;40.98
75418;BME280;63997;52.112;5.420;2023-03-01T14:19:33;102805.00;;;8.95;40.75
75418;BME280;63997;52.112;5.420;2023-03-01T14:22:30;102798.16;;;9.05;40.53
75418;BME280;63997;52.112;5.420;2023-03-01T14:25:05;102792.59;;;9.06;40.41
75418;BME280;63997;52.112;5.420;2023-03-01T14:27:35;102786.22;;;9.07;39.94
75418;BME280;63997;52.112;5.420;2023-03-01T14:30:49;102789.66;;;9.08;40.94